Terminal Aerodrome Forecast
Issued by NWS

Home | Current Version | Previous Version | Text Only | Print | Product List | Glossary On
Versions: 1 2 3 4 5 6 7 8 9 10 11 12 13
000
FTUS45 KRIW 272300
TAFJAC
TAF
KJAC 272324Z 2800/2824 21008KT P6SM FEW060
     FM280200 VRB05KT P6SM SKC
     FM281200 18008KT P6SM SCT250
     FM281800 22014G24KT P6SM BKN250
      AMD LTD TO CLD VIS AND WIND=

USA.gov is the U.S. government's official web portal to all federal, state and local government web resources and services.